createdAt,value
2017-04-05T00:00:12.277Z,14
2017-04-05T00:00:38.357Z,13.96
2017-04-05T00:01:04.438Z,13.9
2017-04-05T00:01:30.539Z,13.97
2017-04-05T00:01:56.642Z,13.95
2017-04-05T00:02:22.724Z,13.86
2017-04-05T00:02:48.806Z,13.92
2017-04-05T00:03:14.886Z,13.95
2017-04-05T00:03:40.964Z,13.95
2017-04-05T00:04:07.048Z,13.86
2017-04-05T00:04:33.129Z,13.92
2017-04-05T00:04:59.208Z,13.95
2017-04-05T00:05:25.312Z,13.93
2017-04-05T00:05:51.416Z,13.93
2017-04-05T00:06:17.494Z,13.9
2017-04-05T00:06:43.599Z,13.92
2017-04-05T00:07:09.680Z,13.92
2017-04-05T00:07:35.763Z,13.92
2017-04-05T00:08:01.841Z,13.87
2017-04-05T00:08:27.923Z,13.81
2017-04-05T00:08:54.001Z,13.87
2017-04-05T00:09:20.081Z,13.87
2017-04-05T00:09:46.163Z,13.86
2017-04-05T00:10:12.243Z,13.79
2017-04-05T00:10:38.323Z,13.86
2017-04-05T00:11:04.405Z,13.79
2017-04-05T00:11:30.484Z,13.75
2017-04-05T00:11:56.563Z,13.85
2017-04-05T00:12:22.646Z,13.79
2017-04-05T00:12:48.748Z,13.75
2017-04-05T00:13:14.829Z,13.78
2017-04-05T00:13:40.912Z,13.77
2017-04-05T00:14:06.994Z,13.72
2017-04-05T00:14:33.097Z,13.71
2017-04-05T00:14:59.196Z,13.79
2017-04-05T00:15:25.279Z,13.79
2017-04-05T00:15:51.360Z,13.71
2017-04-05T00:16:17.439Z,13.62
2017-04-05T00:16:43.521Z,13.71
2017-04-05T00:17:09.603Z,13.6
2017-04-05T00:17:35.680Z,13.72
2017-04-05T00:18:01.766Z,13.6
2017-04-05T00:18:27.843Z,13.7
2017-04-05T00:18:53.921Z,13.7
2017-04-05T00:19:20.002Z,13.65
2017-04-05T00:19:46.085Z,13.68
2017-04-05T00:20:12.186Z,13.56
2017-04-05T00:20:38.288Z,13.65
2017-04-05T00:21:04.371Z,13.65
2017-04-05T00:21:30.450Z,13.54
2017-04-05T00:21:56.532Z,13.46
2017-04-05T00:22:22.663Z,13.57
2017-04-05T00:22:48.765Z,13.54
2017-04-05T00:23:14.846Z,13.56
2017-04-05T00:23:40.946Z,13.57
2017-04-05T00:24:07.027Z,13.49
2017-04-05T00:24:33.108Z,13.47
2017-04-05T00:24:59.186Z,13.54
2017-04-05T00:25:25.267Z,13.5
2017-04-05T00:25:51.347Z,13.46
2017-04-05T00:26:17.426Z,13.52
2017-04-05T00:26:43.509Z,13.5
2017-04-05T00:27:09.611Z,13.54
2017-04-05T00:27:35.689Z,13.49
2017-04-05T00:28:01.772Z,13.53
2017-04-05T00:28:27.852Z,13.49
2017-04-05T00:28:53.933Z,13.41
2017-04-05T00:29:20.035Z,13.41
2017-04-05T00:29:46.116Z,13.44
2017-04-05T00:30:12.197Z,13.44
2017-04-05T00:30:38.276Z,13.46
2017-04-05T00:31:04.357Z,13.39
2017-04-05T00:31:30.436Z,13.41
2017-04-05T00:31:56.541Z,13.44
2017-04-05T00:32:22.623Z,13.41
2017-04-05T00:32:48.704Z,13.47
2017-04-05T00:33:14.783Z,13.41
2017-04-05T00:33:40.864Z,13.42
2017-04-05T00:34:06.969Z,13.44
2017-04-05T00:34:33.049Z,13.46
2017-04-05T00:34:59.127Z,13.39
2017-04-05T00:35:25.214Z,13.49
2017-04-05T00:35:51.315Z,13.44
2017-04-05T00:36:17.393Z,13.42
2017-04-05T00:36:43.497Z,13.39
2017-04-05T00:37:09.578Z,13.44
2017-04-05T00:37:35.658Z,13.38
2017-04-05T00:38:01.741Z,13.27
2017-04-05T00:38:27.823Z,13.27
2017-04-05T00:38:53.905Z,13.31
2017-04-05T00:39:20.010Z,13.28
2017-04-05T00:39:46.089Z,13.31
2017-04-05T00:40:12.192Z,13.31
2017-04-05T00:40:38.293Z,13.25
2017-04-05T00:41:04.373Z,13.25
2017-04-05T00:41:30.452Z,13.23
2017-04-05T00:41:56.531Z,13.37
2017-04-05T00:42:22.611Z,13.39
2017-04-05T00:42:48.704Z,13.37
2017-04-05T00:43:14.790Z,13.37
2017-04-05T00:43:40.871Z,13.25
2017-04-05T00:44:06.949Z,13.27
2017-04-05T00:44:33.029Z,13.3
2017-04-05T00:44:59.113Z,13.28
2017-04-05T00:45:25.213Z,13.27
2017-04-05T00:45:51.313Z,13.28
2017-04-05T00:46:17.396Z,13.3
2017-04-05T00:46:43.499Z,13.22
2017-04-05T00:47:09.625Z,13.3
2017-04-05T00:47:35.701Z,13.31
2017-04-05T00:48:01.784Z,13.22
2017-04-05T00:48:27.863Z,13.23
2017-04-05T00:48:53.941Z,13.25
2017-04-05T00:49:20.021Z,13.27
2017-04-05T00:49:46.099Z,13.23
2017-04-05T00:50:12.202Z,13.28
2017-04-05T00:50:38.283Z,13.3
2017-04-05T00:51:04.383Z,13.15
2017-04-05T00:51:30.462Z,13.2
2017-04-05T00:51:56.544Z,13.2
2017-04-05T00:52:22.622Z,13.15
2017-04-05T00:52:48.707Z,13.2
2017-04-05T00:53:14.809Z,13.16
2017-04-05T00:53:40.909Z,13.25
2017-04-05T00:54:07.011Z,13.2
2017-04-05T00:54:33.103Z,13.13
2017-04-05T00:54:59.196Z,13.12
2017-04-05T00:55:25.275Z,13.15
2017-04-05T00:55:51.357Z,13.18
2017-04-05T00:56:17.435Z,13.18
2017-04-05T00:56:43.516Z,13.16
2017-04-05T00:57:09.597Z,13.11
2017-04-05T00:57:35.701Z,13.23
2017-04-05T00:58:01.780Z,13.15
2017-04-05T00:58:27.883Z,13.2
2017-04-05T00:58:53.967Z,13.2
2017-04-05T00:59:20.071Z,13.22
2017-04-05T00:59:46.150Z,13.27
2017-04-05T01:00:12.254Z,13.13
2017-04-05T01:00:38.308Z,13.19
2017-04-05T01:01:04.387Z,13.13
2017-04-05T01:01:30.516Z,13.2
2017-04-05T01:01:56.599Z,13.13
2017-04-05T01:02:22.679Z,13.27
2017-04-05T01:02:48.757Z,13.23
2017-04-05T01:03:14.838Z,13.27
2017-04-05T01:03:40.918Z,13.23
2017-04-05T01:04:06.996Z,13.19
2017-04-05T01:04:33.077Z,13.2
2017-04-05T01:04:59.156Z,13.18
2017-04-05T01:05:25.260Z,13.12
2017-04-05T01:05:51.364Z,13.11
2017-04-05T01:06:17.448Z,13.12
2017-04-05T01:06:43.529Z,13.11
2017-04-05T01:07:09.654Z,13.08
2017-04-05T01:07:35.735Z,13.12
2017-04-05T01:08:01.817Z,13.11
2017-04-05T01:08:27.895Z,13.15
2017-04-05T01:08:53.976Z,13.11
2017-04-05T01:09:20.079Z,13.16
2017-04-05T01:09:46.160Z,13.16
2017-04-05T01:10:12.262Z,13.11
2017-04-05T01:10:38.344Z,13.18
2017-04-05T01:11:04.424Z,13.11
2017-04-05T01:11:30.502Z,13.16
2017-04-05T01:11:56.586Z,13.13
2017-04-05T01:12:22.665Z,13.15
2017-04-05T01:12:48.745Z,13.11
2017-04-05T01:13:14.851Z,13.16
2017-04-05T01:13:40.935Z,13.16
2017-04-05T01:14:07.017Z,13.11
2017-04-05T01:14:33.117Z,13.09
2017-04-05T01:14:59.198Z,13.11
2017-04-05T01:15:25.281Z,13.08
2017-04-05T01:15:51.383Z,12.97
2017-04-05T01:16:17.483Z,13.04
2017-04-05T01:16:43.565Z,12.95
2017-04-05T01:17:09.647Z,13.01
2017-04-05T01:17:35.726Z,13.01
2017-04-05T01:18:01.807Z,13.05
2017-04-05T01:18:27.889Z,13.01
2017-04-05T01:18:53.968Z,12.97
2017-04-05T01:19:20.049Z,12.97
2017-04-05T01:19:46.156Z,13.09
2017-04-05T01:20:12.260Z,12.94
2017-04-05T01:20:38.338Z,12.97
2017-04-05T01:21:04.442Z,13.03
2017-04-05T01:21:30.525Z,13.01
2017-04-05T01:21:56.608Z,13
2017-04-05T01:22:22.709Z,12.97
2017-04-05T01:22:48.810Z,13.03
2017-04-05T01:23:14.892Z,13.01
2017-04-05T01:23:40.969Z,13.05
2017-04-05T01:24:07.049Z,13
2017-04-05T01:24:33.154Z,13.04
2017-04-05T01:24:59.209Z,13.08
2017-04-05T01:25:25.289Z,13.11
2017-04-05T01:25:51.370Z,13.01
2017-04-05T01:26:17.448Z,13.05
2017-04-05T01:26:43.529Z,13.09
2017-04-05T01:27:09.611Z,13.12
2017-04-05T01:27:35.690Z,13.11
2017-04-05T01:28:01.771Z,13.01
2017-04-05T01:28:27.849Z,13.05
2017-04-05T01:28:53.983Z,13.09
2017-04-05T01:29:20.060Z,13.01
2017-04-05T01:29:46.139Z,13.09
2017-04-05T01:30:12.219Z,13.05
2017-04-05T01:30:38.296Z,13.08
2017-04-05T01:31:04.377Z,13.04
2017-04-05T01:31:30.458Z,13.09
2017-04-05T01:31:56.536Z,13.08
2017-04-05T01:32:22.619Z,13.03
2017-04-05T01:32:48.698Z,13.08
2017-04-05T01:33:14.799Z,13.05
2017-04-05T01:33:40.882Z,13
2017-04-05T01:34:06.964Z,12.95
2017-04-05T01:34:33.066Z,13.04
2017-04-05T01:34:59.144Z,13.05
2017-04-05T01:35:25.250Z,13.04
2017-04-05T01:35:51.351Z,12.98
2017-04-05T01:36:17.428Z,13
2017-04-05T01:36:43.531Z,12.87
2017-04-05T01:37:09.590Z,12.94
2017-04-05T01:37:35.669Z,12.95
2017-04-05T01:38:01.752Z,12.95
2017-04-05T01:38:27.834Z,12.95
2017-04-05T01:38:53.934Z,12.93
2017-04-05T01:39:20.037Z,12.82
2017-04-05T01:39:46.139Z,12.86
2017-04-05T01:40:12.223Z,12.91
2017-04-05T01:40:38.299Z,12.86
2017-04-05T01:41:04.383Z,12.83
2017-04-05T01:41:30.463Z,12.95
2017-04-05T01:41:56.542Z,12.97
2017-04-05T01:42:22.624Z,12.95
2017-04-05T01:42:48.704Z,12.83
2017-04-05T01:43:14.781Z,12.93
2017-04-05T01:43:40.863Z,12.87
2017-04-05T01:44:06.943Z,12.94
2017-04-05T01:44:33.021Z,12.85
2017-04-05T01:44:59.102Z,12.87
2017-04-05T01:45:25.202Z,12.93
2017-04-05T01:45:51.283Z,12.93
2017-04-05T01:46:17.364Z,12.97
2017-04-05T01:46:43.445Z,12.94
2017-04-05T01:47:09.525Z,12.87
2017-04-05T01:47:35.607Z,12.87
2017-04-05T01:48:01.688Z,12.87
2017-04-05T01:48:27.769Z,12.94
2017-04-05T01:48:53.869Z,12.9
2017-04-05T01:49:19.950Z,12.97
2017-04-05T01:49:46.054Z,12.97
2017-04-05T01:50:12.131Z,12.93
2017-04-05T01:50:38.212Z,12.95
2017-04-05T01:51:04.291Z,12.93
2017-04-05T01:51:30.370Z,12.85
2017-04-05T01:51:56.450Z,12.82
2017-04-05T01:52:22.550Z,12.8
2017-04-05T01:52:48.631Z,12.8
2017-04-05T01:53:14.711Z,12.83
2017-04-05T01:53:40.817Z,12.83
2017-04-05T01:54:06.868Z,12.93
2017-04-05T01:54:32.974Z,12.9
2017-04-05T01:54:59.049Z,12.87
2017-04-05T01:55:25.133Z,12.87
2017-04-05T01:55:51.235Z,12.85
2017-04-05T01:56:17.314Z,12.86
2017-04-05T01:56:43.394Z,12.91
2017-04-05T01:57:09.477Z,12.87
2017-04-05T01:57:35.556Z,12.86
2017-04-05T01:58:01.634Z,12.87
2017-04-05T01:58:27.718Z,12.87
2017-04-05T01:58:53.820Z,12.98
2017-04-05T01:59:19.899Z,12.95
2017-04-05T01:59:45.980Z,12.98
2017-04-05T02:00:12.082Z,12.91
2017-04-05T02:00:38.162Z,12.98
2017-04-05T02:01:04.264Z,12.91
2017-04-05T02:01:30.342Z,12.94
2017-04-05T02:01:56.627Z,13.01
2017-04-05T02:02:22.729Z,12.95
2017-04-05T02:02:48.806Z,12.97
2017-04-05T02:03:14.887Z,12.93
2017-04-05T02:03:40.989Z,12.95
2017-04-05T02:04:07.090Z,12.94
2017-04-05T02:04:33.195Z,12.95
2017-04-05T02:04:59.277Z,12.94
2017-04-05T02:05:25.354Z,12.98
2017-04-05T02:05:51.458Z,12.97
2017-04-05T02:06:17.539Z,13.01
2017-04-05T02:06:43.617Z,12.98
2017-04-05T02:07:09.721Z,12.91
2017-04-05T02:07:35.804Z,12.85
2017-04-05T02:08:01.883Z,12.94
2017-04-05T02:08:27.961Z,12.97
2017-04-05T02:08:54.065Z,13
2017-04-05T02:09:20.196Z,12.95
2017-04-05T02:09:46.278Z,12.93
2017-04-05T02:10:12.354Z,12.97
2017-04-05T02:10:38.437Z,12.93
2017-04-05T02:11:04.537Z,12.98
2017-04-05T02:11:30.617Z,12.97
2017-04-05T02:11:56.719Z,12.97
2017-04-05T02:12:22.799Z,12.93
2017-04-05T02:12:48.879Z,12.91
2017-04-05T02:13:14.960Z,12.97
2017-04-05T02:13:41.062Z,12.91
2017-04-05T02:14:07.140Z,12.98
2017-04-05T02:14:33.221Z,12.91
2017-04-05T02:14:59.300Z,12.87
2017-04-05T02:15:25.380Z,12.97
2017-04-05T02:15:51.460Z,13.01
2017-04-05T02:16:17.539Z,12.97
2017-04-05T02:16:43.642Z,12.91
2017-04-05T02:17:09.745Z,12.83
2017-04-05T02:17:35.825Z,12.97
2017-04-05T02:18:01.902Z,12.87
2017-04-05T02:18:27.984Z,12.95
2017-04-05T02:18:54.065Z,12.93
2017-04-05T02:19:20.163Z,12.97
2017-04-05T02:19:46.247Z,12.97
2017-04-05T02:20:12.352Z,12.94
2017-04-05T02:20:38.477Z,12.97
2017-04-05T02:21:04.557Z,12.98
2017-04-05T02:21:30.637Z,12.98
2017-04-05T02:21:56.717Z,12.94
2017-04-05T02:22:22.796Z,12.97
2017-04-05T02:22:48.898Z,12.94
2017-04-05T02:23:14.976Z,12.97
2017-04-05T02:23:41.054Z,12.95
2017-04-05T02:24:07.135Z,12.93
2017-04-05T02:24:33.214Z,12.97
2017-04-05T02:24:59.295Z,12.97
2017-04-05T02:25:25.377Z,12.94
2017-04-05T02:25:51.456Z,12.95
2017-04-05T02:26:17.536Z,12.98
2017-04-05T02:26:43.642Z,12.94
2017-04-05T02:27:09.723Z,12.91
2017-04-05T02:27:35.821Z,12.97
2017-04-05T02:28:01.902Z,13
2017-04-05T02:28:28.004Z,12.97
2017-04-05T02:28:54.085Z,12.91
2017-04-05T02:29:20.287Z,13
2017-04-05T02:29:46.367Z,12.98
2017-04-05T02:30:12.446Z,12.91
2017-04-05T02:30:38.549Z,12.94
2017-04-05T02:31:04.625Z,12.86
2017-04-05T02:31:30.730Z,12.87
2017-04-05T02:31:56.810Z,12.85
2017-04-05T02:32:22.887Z,12.83
2017-04-05T02:32:48.990Z,12.87
2017-04-05T02:33:15.093Z,12.94
2017-04-05T02:33:41.171Z,12.95
2017-04-05T02:34:07.272Z,12.94
2017-04-05T02:34:33.356Z,12.91
2017-04-05T02:34:59.460Z,12.93
2017-04-05T02:35:25.561Z,12.91
2017-04-05T02:35:51.665Z,12.83
2017-04-05T02:36:17.747Z,12.85
2017-04-05T02:36:43.826Z,12.8
2017-04-05T02:37:09.904Z,12.8
2017-04-05T02:37:36.010Z,12.82
2017-04-05T02:38:02.089Z,12.86
2017-04-05T02:38:28.168Z,12.8
2017-04-05T02:38:54.250Z,12.82
2017-04-05T02:39:20.352Z,12.83
2017-04-05T02:39:46.431Z,12.78
2017-04-05T02:40:12.535Z,12.83
2017-04-05T02:40:38.614Z,12.8
2017-04-05T02:41:04.692Z,12.78
2017-04-05T02:41:30.799Z,12.82
2017-04-05T02:41:56.879Z,12.85
2017-04-05T02:42:22.957Z,12.82
2017-04-05T02:42:49.061Z,12.8
2017-04-05T02:43:15.163Z,12.82
2017-04-05T02:43:41.245Z,12.82
2017-04-05T02:44:07.323Z,12.83
2017-04-05T02:44:33.426Z,12.7
2017-04-05T02:44:59.506Z,12.85
2017-04-05T02:45:25.582Z,12.7
2017-04-05T02:45:51.666Z,12.7
2017-04-05T02:46:17.745Z,12.75
2017-04-05T02:46:43.844Z,12.7
2017-04-05T02:47:09.929Z,12.72
2017-04-05T02:47:36.009Z,12.72
2017-04-05T02:48:02.087Z,12.73
2017-04-05T02:48:28.168Z,12.75
2017-04-05T02:48:54.251Z,12.7
2017-04-05T02:49:20.350Z,12.62
2017-04-05T02:49:46.430Z,12.65
2017-04-05T02:50:12.513Z,12.72
2017-04-05T02:50:38.613Z,12.68
2017-04-05T02:51:04.692Z,12.57
2017-04-05T02:51:30.776Z,12.65
2017-04-05T02:51:56.856Z,12.57
2017-04-05T02:52:22.936Z,12.57
2017-04-05T02:52:49.016Z,12.58
2017-04-05T02:53:15.096Z,12.61
2017-04-05T02:53:41.175Z,12.64
2017-04-05T02:54:07.281Z,12.62
2017-04-05T02:54:33.381Z,12.64
2017-04-05T02:54:59.484Z,12.61
2017-04-05T02:55:25.539Z,12.65
2017-04-05T02:55:51.644Z,12.68
2017-04-05T02:56:17.723Z,12.62
2017-04-05T02:56:43.804Z,12.58
2017-04-05T02:57:09.905Z,12.58
2017-04-05T02:57:35.983Z,12.6
2017-04-05T02:58:02.083Z,12.65
2017-04-05T02:58:28.143Z,12.58
2017-04-05T02:58:54.223Z,12.62
2017-04-05T02:59:20.303Z,12.61
2017-04-05T02:59:46.385Z,12.61
2017-04-05T03:00:12.464Z,12.55
2017-04-05T03:00:38.545Z,12.62
2017-04-05T03:01:04.649Z,12.62
2017-04-05T03:01:30.729Z,12.6
2017-04-05T03:01:56.809Z,12.6
2017-04-05T03:02:22.891Z,12.61
2017-04-05T03:02:48.992Z,12.61
2017-04-05T03:03:15.071Z,12.61
2017-04-05T03:03:41.152Z,12.65
2017-04-05T03:04:07.231Z,12.62
2017-04-05T03:04:33.311Z,12.67
2017-04-05T03:04:59.391Z,12.68
2017-04-05T03:05:25.468Z,12.68
2017-04-05T03:05:51.595Z,12.67
2017-04-05T03:06:17.679Z,12.64
2017-04-05T03:06:43.760Z,12.61
2017-04-05T03:07:09.839Z,12.65
2017-04-05T03:07:35.942Z,12.61
2017-04-05T03:08:02.024Z,12.55
2017-04-05T03:08:28.104Z,12.55
2017-04-05T03:08:54.182Z,12.55
2017-04-05T03:09:20.263Z,12.53
2017-04-05T03:09:46.340Z,12.53
2017-04-05T03:10:12.441Z,12.54
2017-04-05T03:10:38.525Z,12.47
2017-04-05T03:11:04.602Z,12.54
2017-04-05T03:11:30.682Z,12.47
2017-04-05T03:11:56.763Z,12.54
2017-04-05T03:12:22.842Z,12.54
2017-04-05T03:12:48.920Z,12.58
2017-04-05T03:13:15.001Z,12.54
2017-04-05T03:13:41.077Z,12.53
2017-04-05T03:14:07.158Z,12.53
2017-04-05T03:14:33.239Z,12.53
2017-04-05T03:14:59.317Z,12.5
2017-04-05T03:15:25.398Z,12.5
2017-04-05T03:15:51.480Z,12.53
2017-04-05T03:16:17.558Z,12.45
2017-04-05T03:16:43.639Z,12.4
2017-04-05T03:17:09.742Z,12.47
2017-04-05T03:17:35.821Z,12.42
2017-04-05T03:18:01.901Z,12.42
2017-04-05T03:18:27.979Z,12.47
2017-04-05T03:18:54.057Z,12.43
2017-04-05T03:19:20.139Z,12.39
2017-04-05T03:19:46.219Z,12.47
2017-04-05T03:20:12.317Z,12.45
2017-04-05T03:20:38.399Z,12.43
2017-04-05T03:21:04.481Z,12.46
2017-04-05T03:21:30.581Z,12.43
2017-04-05T03:21:56.663Z,12.37
2017-04-05T03:22:22.768Z,12.47
2017-04-05T03:22:48.872Z,12.42
2017-04-05T03:23:14.949Z,12.45
2017-04-05T03:23:41.029Z,12.36
2017-04-05T03:24:07.108Z,12.35
2017-04-05T03:24:33.187Z,12.45
2017-04-05T03:24:59.292Z,12.4
2017-04-05T03:25:25.370Z,12.39
2017-04-05T03:25:51.470Z,12.29
2017-04-05T03:26:17.551Z,12.32
2017-04-05T03:26:43.633Z,12.35
2017-04-05T03:27:09.711Z,12.39
2017-04-05T03:27:35.814Z,12.31
2017-04-05T03:28:01.895Z,12.35
2017-04-05T03:28:27.971Z,12.37
2017-04-05T03:28:54.053Z,12.39
2017-04-05T03:29:20.133Z,12.37
2017-04-05T03:29:46.211Z,12.4
2017-04-05T03:30:12.316Z,12.39
2017-04-05T03:30:38.398Z,12.43
2017-04-05T03:31:04.476Z,12.43
2017-04-05T03:31:30.556Z,12.31
2017-04-05T03:31:56.643Z,12.36
2017-04-05T03:32:22.743Z,12.35
2017-04-05T03:32:48.820Z,12.39
2017-04-05T03:33:14.901Z,12.35
2017-04-05T03:33:40.978Z,12.35
2017-04-05T03:34:07.057Z,12.31
2017-04-05T03:34:33.142Z,12.36
2017-04-05T03:34:59.242Z,12.36
2017-04-05T03:35:25.320Z,12.35
2017-04-05T03:35:51.401Z,12.37
2017-04-05T03:36:17.481Z,12.32
2017-04-05T03:36:43.559Z,12.36
2017-04-05T03:37:09.640Z,12.37
2017-04-05T03:37:35.719Z,12.32
2017-04-05T03:38:01.799Z,12.28
2017-04-05T03:38:27.879Z,12.27
2017-04-05T03:38:53.958Z,12.24
2017-04-05T03:39:20.039Z,12.2
2017-04-05T03:39:46.120Z,12.27
2017-04-05T03:40:12.201Z,12.24
2017-04-05T03:40:38.279Z,12.24
2017-04-05T03:41:04.384Z,12.2
2017-04-05T03:41:30.463Z,12.27
2017-04-05T03:41:56.610Z,12.27
2017-04-05T03:42:22.689Z,12.24
2017-04-05T03:42:48.770Z,12.29
2017-04-05T03:43:14.849Z,12.31
2017-04-05T03:43:40.928Z,12.22
2017-04-05T03:44:07.009Z,12.27
2017-04-05T03:44:33.087Z,12.27
2017-04-05T03:44:59.167Z,12.24
2017-04-05T03:45:25.253Z,12.24
2017-04-05T03:45:51.329Z,12.27
2017-04-05T03:46:17.406Z,12.2
2017-04-05T03:46:43.487Z,12.25
2017-04-05T03:47:09.566Z,12.22
2017-04-05T03:47:35.646Z,12.27
2017-04-05T03:48:01.727Z,12.2
2017-04-05T03:48:27.804Z,12.24
2017-04-05T03:48:53.885Z,12.22
2017-04-05T03:49:19.964Z,12.2
2017-04-05T03:49:46.065Z,12.09
2017-04-05T03:50:12.147Z,12.09
2017-04-05T03:50:38.227Z,12.04
2017-04-05T03:51:04.307Z,12.09
2017-04-05T03:51:30.406Z,12.07
2017-04-05T03:51:56.485Z,12.1
2017-04-05T03:52:22.612Z,12.09
2017-04-05T03:52:48.688Z,12.07
2017-04-05T03:53:14.769Z,12.15
2017-04-05T03:53:40.912Z,12.1
2017-04-05T03:54:07.000Z,12.12
2017-04-05T03:54:33.079Z,12.07
2017-04-05T03:54:59.162Z,12.09
2017-04-05T03:55:25.289Z,12.07
2017-04-05T03:55:51.367Z,12.07
2017-04-05T03:56:17.447Z,12.17
2017-04-05T03:56:43.527Z,12.15
2017-04-05T03:57:09.605Z,12.09
2017-04-05T03:57:35.686Z,12.12
2017-04-05T03:58:01.765Z,12.04
2017-04-05T03:58:27.866Z,12.02
2017-04-05T03:58:53.948Z,11.94
2017-04-05T03:59:20.026Z,11.94
2017-04-05T03:59:46.105Z,11.83
2017-04-05T04:00:12.187Z,11.81
2017-04-05T04:00:38.267Z,11.8
2017-04-05T04:01:04.344Z,11.7
2017-04-05T04:01:30.426Z,11.8
2017-04-05T04:01:56.506Z,11.77
2017-04-05T04:02:22.610Z,11.75
2017-04-05T04:02:48.689Z,11.73
2017-04-05T04:03:14.770Z,11.77
2017-04-05T04:03:40.847Z,11.83
2017-04-05T04:04:06.925Z,11.75
2017-04-05T04:04:33.007Z,11.78
2017-04-05T04:04:59.090Z,11.8
2017-04-05T04:05:25.167Z,11.72
2017-04-05T04:05:51.250Z,11.73
2017-04-05T04:06:17.328Z,11.72
2017-04-05T04:06:43.409Z,11.69
2017-04-05T04:07:09.490Z,11.63
2017-04-05T04:07:35.568Z,11.66
2017-04-05T04:08:01.645Z,11.51
2017-04-05T04:08:27.726Z,11.51
2017-04-05T04:08:53.803Z,11.47
2017-04-05T04:09:19.883Z,11.44
2017-04-05T04:09:45.964Z,11.33
2017-04-05T04:10:12.065Z,11.35
2017-04-05T04:10:38.167Z,11.23
2017-04-05T04:11:04.249Z,11.23
2017-04-05T04:11:30.375Z,11.26
2017-04-05T04:11:56.453Z,11.19
2017-04-05T04:12:22.558Z,11.29
2017-04-05T04:12:48.639Z,11.3
2017-04-05T04:13:14.718Z,11.26
2017-04-05T04:13:40.796Z,11.32
2017-04-05T04:14:06.924Z,11.23
2017-04-05T04:14:33.006Z,11.29
2017-04-05T04:14:59.082Z,11.26
2017-04-05T04:15:25.164Z,11.15
2017-04-05T04:15:51.242Z,11.22
2017-04-05T04:16:17.319Z,11.12
2017-04-05T04:16:43.399Z,11.15
2017-04-05T04:17:09.478Z,11.07
2017-04-05T04:17:35.557Z,11.12
2017-04-05T04:18:01.640Z,11.11
2017-04-05T04:18:27.724Z,11.08
2017-04-05T04:18:53.798Z,11.15
2017-04-05T04:19:19.878Z,11.02
2017-04-05T04:19:45.958Z,11.11
2017-04-05T04:20:12.060Z,11.11
2017-04-05T04:20:38.162Z,11.1
2017-04-05T04:21:04.263Z,11.02
2017-04-05T04:21:30.341Z,11.07
2017-04-05T04:21:56.421Z,11.11
2017-04-05T04:22:22.526Z,11.04
2017-04-05T04:22:48.605Z,11
2017-04-05T04:23:14.685Z,11.08
2017-04-05T04:23:40.787Z,11.1
2017-04-05T04:24:06.864Z,10.99
2017-04-05T04:24:32.943Z,11
2017-04-05T04:24:59.026Z,11.02
2017-04-05T04:25:25.130Z,10.96
2017-04-05T04:25:51.207Z,11
2017-04-05T04:26:17.287Z,10.99
2017-04-05T04:26:43.368Z,11.05
2017-04-05T04:27:09.448Z,10.96
2017-04-05T04:27:35.530Z,11.1
2017-04-05T04:28:01.610Z,10.99
2017-04-05T04:28:27.688Z,11
2017-04-05T04:28:53.769Z,10.96
2017-04-05T04:29:19.873Z,10.97
2017-04-05T04:29:45.952Z,10.99
2017-04-05T04:30:12.030Z,10.97
2017-04-05T04:30:38.112Z,10.99
2017-04-05T04:31:04.190Z,10.94
2017-04-05T04:31:30.290Z,10.97
2017-04-05T04:31:56.371Z,10.99
2017-04-05T04:32:22.477Z,11.05
2017-04-05T04:32:48.553Z,11.02
2017-04-05T04:33:14.633Z,10.97
2017-04-05T04:33:40.740Z,10.96
2017-04-05T04:34:06.843Z,10.9
2017-04-05T04:34:32.919Z,11
2017-04-05T04:34:59.000Z,10.92
2017-04-05T04:35:25.080Z,10.93
2017-04-05T04:35:51.206Z,10.96
2017-04-05T04:36:17.285Z,10.93
2017-04-05T04:36:43.410Z,10.96
2017-04-05T04:37:09.489Z,10.89
2017-04-05T04:37:35.570Z,10.94
2017-04-05T04:38:01.651Z,10.78
2017-04-05T04:38:27.751Z,10.89
2017-04-05T04:38:53.830Z,10.84
2017-04-05T04:39:19.910Z,10.86
2017-04-05T04:39:45.992Z,10.97
2017-04-05T04:40:12.068Z,10.79
2017-04-05T04:40:38.149Z,10.78
2017-04-05T04:41:04.229Z,10.76
2017-04-05T04:41:30.305Z,10.71
2017-04-05T04:41:56.386Z,10.71
2017-04-05T04:42:22.467Z,10.71
2017-04-05T04:42:48.544Z,10.79
2017-04-05T04:43:14.649Z,10.74
2017-04-05T04:43:40.728Z,10.72
2017-04-05T04:44:06.848Z,10.79
2017-04-05T04:44:32.930Z,10.75
2017-04-05T04:44:59.013Z,10.71
2017-04-05T04:45:25.097Z,10.69
2017-04-05T04:45:51.176Z,10.74
2017-04-05T04:46:17.255Z,10.74
2017-04-05T04:46:43.334Z,10.74
2017-04-05T04:47:09.409Z,10.82
2017-04-05T04:47:35.513Z,10.68
2017-04-05T04:48:01.596Z,10.82
2017-04-05T04:48:27.695Z,10.79
2017-04-05T04:48:53.775Z,10.86
2017-04-05T04:49:19.877Z,10.82
2017-04-05T04:49:45.976Z,10.92
2017-04-05T04:50:12.080Z,10.92
2017-04-05T04:50:38.162Z,10.84
2017-04-05T04:51:04.243Z,10.94
2017-04-05T04:51:30.320Z,10.89
2017-04-05T04:51:56.423Z,10.94
2017-04-05T04:52:22.503Z,10.99
2017-04-05T04:52:48.580Z,11.02
2017-04-05T04:53:14.683Z,11.04
2017-04-05T04:53:40.762Z,10.97
2017-04-05T04:54:06.841Z,10.97
2017-04-05T04:54:32.921Z,11.04
2017-04-05T04:54:59.000Z,11
2017-04-05T04:55:25.079Z,10.99
2017-04-05T04:55:51.160Z,11
2017-04-05T04:56:17.239Z,10.97
2017-04-05T04:56:43.318Z,11.04
2017-04-05T04:57:09.399Z,10.96
2017-04-05T04:57:35.476Z,10.97
2017-04-05T04:58:01.579Z,11
2017-04-05T04:58:27.680Z,10.99
2017-04-05T04:58:53.761Z,11.08
2017-04-05T04:59:19.839Z,11.02
2017-04-05T04:59:45.921Z,11.1
2017-04-05T05:00:12.026Z,11.14
2017-04-05T05:00:38.106Z,11.15
2017-04-05T05:01:04.183Z,11.11
2017-04-05T05:01:30.264Z,11.12
2017-04-05T05:01:56.369Z,11.23
2017-04-05T05:02:22.468Z,11.19
2017-04-05T05:02:48.548Z,11.17
2017-04-05T05:03:14.651Z,11.18
2017-04-05T05:03:40.749Z,11.15
2017-04-05T05:04:06.852Z,11.22
2017-04-05T05:04:32.932Z,11.18
2017-04-05T05:04:59.033Z,11.22
2017-04-05T05:05:25.112Z,11.22
2017-04-05T05:05:51.215Z,11.15
2017-04-05T05:06:17.295Z,11.22
2017-04-05T05:06:43.398Z,11.23
2017-04-05T05:07:09.480Z,11.22
2017-04-05T05:07:35.559Z,11.23
2017-04-05T05:08:01.637Z,11.29
2017-04-05T05:08:27.763Z,11.23
2017-04-05T05:08:53.844Z,11.23
2017-04-05T05:09:19.969Z,11.23
2017-04-05T05:09:46.067Z,11.23
2017-04-05T05:10:12.149Z,11.36
2017-04-05T05:10:38.229Z,11.4
2017-04-05T05:11:04.330Z,11.33
2017-04-05T05:11:30.433Z,11.37
2017-04-05T05:11:56.539Z,11.44
2017-04-05T05:12:22.668Z,11.44
2017-04-05T05:12:48.768Z,11.37
2017-04-05T05:13:14.894Z,11.44
2017-04-05T05:13:41.023Z,11.4
2017-04-05T05:14:07.147Z,11.4
2017-04-05T05:14:33.230Z,11.41
2017-04-05T05:14:59.328Z,11.37
2017-04-05T05:15:25.432Z,11.48
2017-04-05T05:15:51.559Z,11.51
2017-04-05T05:16:17.663Z,11.5
2017-04-05T05:16:43.767Z,11.47
2017-04-05T05:17:09.845Z,11.47
2017-04-05T05:17:35.927Z,11.55
2017-04-05T05:18:02.033Z,11.62
2017-04-05T05:18:28.157Z,11.63
2017-04-05T05:18:54.237Z,11.69
2017-04-05T05:19:20.344Z,11.69
2017-04-05T05:19:46.424Z,11.65
2017-04-05T05:20:12.501Z,11.63
2017-04-05T05:20:38.583Z,11.7
2017-04-05T05:21:04.662Z,11.73
2017-04-05T05:21:30.787Z,11.77
2017-04-05T05:21:56.866Z,11.77
2017-04-05T05:22:23.016Z,11.75
2017-04-05T05:22:49.141Z,11.75
2017-04-05T05:23:15.239Z,11.87
2017-04-05T05:23:41.319Z,11.83
2017-04-05T05:24:07.400Z,11.88
2017-04-05T05:24:33.508Z,11.91
2017-04-05T05:24:59.606Z,11.94
2017-04-05T05:25:25.704Z,11.88
2017-04-05T05:25:51.785Z,11.8
2017-04-05T05:26:17.885Z,11.84
2017-04-05T05:26:43.966Z,11.8
2017-04-05T05:27:10.047Z,11.83
2017-04-05T05:27:36.125Z,11.8
2017-04-05T05:28:02.249Z,11.81
2017-04-05T05:28:28.331Z,11.84
2017-04-05T05:28:54.433Z,11.81
2017-04-05T05:29:20.536Z,11.83
2017-04-05T05:29:46.639Z,11.84
2017-04-05T05:30:12.764Z,11.78
2017-04-05T05:30:38.841Z,11.83
2017-04-05T05:31:04.921Z,11.91
2017-04-05T05:31:31.047Z,11.9
2017-04-05T05:31:57.146Z,11.9
2017-04-05T05:32:23.249Z,11.88
2017-04-05T05:32:49.331Z,11.9
2017-04-05T05:33:15.458Z,11.87
2017-04-05T05:33:41.560Z,11.94
2017-04-05T05:34:07.707Z,11.88
2017-04-05T05:34:33.788Z,11.91
2017-04-05T05:34:59.891Z,11.87
2017-04-05T05:35:25.969Z,11.9
2017-04-05T05:35:52.099Z,11.9
2017-04-05T05:36:18.222Z,11.88
2017-04-05T05:36:44.304Z,11.99
2017-04-05T05:37:10.405Z,12
2017-04-05T05:37:36.532Z,11.99